Terminal Aerodrome Forecast
Issued by NWS Birmingham, AL

Home | Current Version | Previous Version | Text Only | Print | Product List | Glossary On
Versions: 1 2 3 4 5 6 7 8 9 10 11 12 13 14 15 16 17
000
FTUS44 KBMX 281130
TAFBHM
TAF
KBHM 281130Z 2812/2912 31003KT P6SM SCT250
     FM281700 32006KT P6SM VCTS SCT050CB
     FM290200 34004KT P6SM SCT250=

USA.gov is the U.S. government's official web portal to all federal, state and local government web resources and services.